Time;durP1;ratioP1;P1;durP2;ratioP2;P2;SDS_P1;SDS_P2;PMS_P1;PMS_P2;Temp;Humidity;BMP_temperature;BMP_pressure;BME280_temperature;BME280_humidity;BME280_pressure;Samples;Min_cycle;Max_cycle;Signal;HPM_P1;HPM_P2
2022/03/09 00:01:01;;;;;;;12.85;1.55;;;3.60;99.90;;;;;;5045628;28;20029;-72
2022/03/09 00:03:26;;;;;;;7.40;1.92;;;3.60;99.90;;;;;;5027870;28;20025;-73
2022/03/09 00:05:55;;;;;;;2.90;1.35;;;3.50;99.90;;;;;;5027657;28;20037;-74
2022/03/09 00:08:21;;;;;;;2.78;1.23;;;3.50;99.90;;;;;;5026356;28;20034;-74
2022/03/09 00:10:47;;;;;;;2.63;1.30;;;3.40;99.90;;;;;;5025915;28;20093;-73
2022/03/09 00:13:13;;;;;;;2.03;1.60;;;3.40;99.90;;;;;;5025875;28;20025;-71
2022/03/09 00:15:39;;;;;;;3.95;1.67;;;3.40;99.90;;;;;;5024116;28;20045;-73
2022/03/09 00:18:05;;;;;;;4.13;1.45;;;3.40;99.90;;;;;;5025844;28;20025;-72
2022/03/09 00:20:31;;;;;;;2.22;1.10;;;3.40;99.90;;;;;;5023987;28;20122;-72
2022/03/09 00:22:56;;;;;;;5.53;1.63;;;3.40;99.90;;;;;;5025253;28;20033;-71
2022/03/09 00:25:22;;;;;;;4.93;1.70;;;3.40;99.90;;;;;;5024170;28;20037;-74
2022/03/09 00:27:48;;;;;;;2.20;1.25;;;3.40;99.90;;;;;;5025432;28;20049;-72
2022/03/09 00:30:14;;;;;;;3.85;1.73;;;3.40;99.90;;;;;;5025221;28;20025;-74
2022/03/09 00:32:39;;;;;;;3.03;1.75;;;3.40;99.90;;;;;;5024582;28;20030;-71
2022/03/09 00:35:08;;;;;;;4.35;1.77;;;3.30;99.90;;;;;;5029340;28;20025;-73
2022/03/09 00:37:38;;;;;;;3.28;1.45;;;3.30;99.90;;;;;;5037826;28;20021;-71
2022/03/09 00:40:05;;;;;;;3.95;2.00;;;3.20;99.90;;;;;;5026864;28;20030;-72
2022/03/09 00:42:36;;;;;;;3.80;1.73;;;3.10;99.90;;;;;;5045119;28;20420;-73
2022/03/09 00:45:04;;;;;;;3.97;1.80;;;3.20;99.90;;;;;;5027101;28;20068;-74
2022/03/09 00:47:30;;;;;;;4.80;1.75;;;3.10;99.90;;;;;;5044859;28;20021;-74
2022/03/09 00:49:56;;;;;;;4.72;2.05;;;3.00;99.90;;;;;;5044566;28;20075;-74
2022/03/09 00:52:22;;;;;;;3.83;1.90;;;3.00;99.90;;;;;;5044752;28;20060;-73
2022/03/09 00:54:48;;;;;;;2.20;1.35;;;3.00;99.90;;;;;;5045027;28;20081;-74
2022/03/09 00:57:14;;;;;;;8.55;2.65;;;3.00;99.90;;;;;;5026754;28;20103;-74
2022/03/09 00:59:40;;;;;;;2.25;1.45;;;2.90;99.90;;;;;;5044884;28;20017;-75
2022/03/09 01:02:07;;;;;;;3.30;1.40;;;2.90;99.90;;;;;;5044907;28;20025;-75
2022/03/09 01:04:34;;;;;;;8.20;2.40;;;2.70;99.90;;;;;;5026792;28;20041;-73
2022/03/09 01:07:01;;;;;;;5.50;2.25;;;2.80;99.90;;;;;;5027169;28;20040;-73
2022/03/09 01:09:26;;;;;;;7.20;2.65;;;2.70;99.90;;;;;;5044626;28;20088;-73
2022/03/09 01:11:52;;;;;;;3.88;1.55;;;2.70;99.90;;;;;;5044509;28;20025;-75
2022/03/09 01:14:17;;;;;;;7.18;2.40;;;2.70;99.90;;;;;;5044644;28;20033;-73
2022/03/09 01:16:43;;;;;;;7.47;2.05;;;2.70;99.90;;;;;;5026989;28;20037;-75
2022/03/09 01:19:10;;;;;;;6.90;2.40;;;2.70;99.90;;;;;;5043068;28;20033;-73
2022/03/09 01:21:39;;;;;;;3.83;2.00;;;2.70;99.90;;;;;;5029663;28;20025;-74
2022/03/09 01:24:06;;;;;;;4.72;1.40;;;2.60;99.90;;;;;;5044629;28;20046;-72
2022/03/09 01:26:34;;;;;;;8.50;2.17;;;2.60;99.90;;;;;;5024998;28;20042;-71
2022/03/09 01:29:00;;;;;;;6.90;2.47;;;2.60;99.90;;;;;;5007360;28;20103;-72
2022/03/09 01:31:26;;;;;;;3.78;1.70;;;2.60;99.90;;;;;;5024729;28;20474;-73
2022/03/09 01:33:52;;;;;;;2.15;1.30;;;2.60;99.90;;;;;;5024697;28;20077;-72
2022/03/09 01:36:18;;;;;;;6.82;2.05;;;2.50;99.90;;;;;;5025017;28;20045;-72
2022/03/09 01:38:43;;;;;;;2.15;1.50;;;2.50;99.90;;;;;;5024400;28;20056;-74
2022/03/09 01:41:11;;;;;;;6.45;1.70;;;2.50;99.90;;;;;;5006898;28;20087;-75
2022/03/09 01:43:39;;;;;;;2.72;1.52;;;2.50;99.90;;;;;;5026720;28;20112;-73
2022/03/09 01:46:06;;;;;;;5.18;1.92;;;2.50;99.90;;;;;;5028336;28;20026;-72
2022/03/09 01:48:31;;;;;;;5.70;2.45;;;2.50;99.90;;;;;;5028779;28;20033;-73
2022/03/09 01:50:57;;;;;;;4.45;1.60;;;2.40;99.90;;;;;;5028563;28;20026;-73
2022/03/09 01:53:23;;;;;;;3.63;1.80;;;2.40;99.90;;;;;;5028226;28;20125;-72
2022/03/09 01:55:49;;;;;;;7.78;2.30;;;2.50;99.90;;;;;;5028589;28;20029;-72
2022/03/09 01:58:15;;;;;;;6.53;2.13;;;2.50;99.90;;;;;;5028191;28;20026;-73
2022/03/09 02:00:40;;;;;;;3.28;1.77;;;2.50;99.90;;;;;;5010142;28;20034;-73
2022/03/09 02:03:06;;;;;;;5.43;2.35;;;2.50;99.90;;;;;;5028532;28;20033;-73
2022/03/09 02:05:34;;;;;;;5.30;1.83;;;2.40;99.90;;;;;;5028109;28;20038;-73
2022/03/09 02:10:46;;;;;;;9.40;2.85;;;2.40;99.90;;;;;;5028506;28;20036;-73
2022/03/09 02:13:11;;;;;;;3.45;1.60;;;2.50;99.90;;;;;;5009784;28;20026;-74
2022/03/09 02:15:37;;;;;;;2.90;1.90;;;2.40;99.90;;;;;;5010428;28;20037;-73
2022/03/09 02:18:03;;;;;;;5.00;1.83;;;2.40;99.90;;;;;;5010875;28;20449;-74
2022/03/09 02:20:37;;;;;;;13.32;2.75;;;2.30;99.90;;;;;;5009773;28;20032;-74
2022/03/09 02:23:03;;;;;;;10.43;2.65;;;2.30;99.90;;;;;;5031498;28;20115;-74
2022/03/09 02:25:29;;;;;;;3.05;1.38;;;2.30;99.90;;;;;;5027741;28;20084;-75
2022/03/09 02:27:54;;;;;;;5.65;1.70;;;2.30;99.90;;;;;;5026231;28;20025;-74
2022/03/09 02:30:22;;;;;;;3.92;1.80;;;2.30;99.90;;;;;;5027899;28;20037;-74
2022/03/09 02:32:49;;;;;;;3.60;1.73;;;2.30;99.90;;;;;;5027662;28;20037;-72
2022/03/09 02:35:17;;;;;;;6.32;2.00;;;2.20;99.90;;;;;;5026068;28;20026;-73
2022/03/09 02:37:42;;;;;;;4.43;2.28;;;2.20;99.90;;;;;;5027605;28;20034;-74
2022/03/09 02:40:10;;;;;;;3.55;1.80;;;2.30;99.90;;;;;;5028026;28;20052;-72
2022/03/09 02:42:36;;;;;;;3.33;1.80;;;2.10;99.90;;;;;;5019937;28;20027;-74
2022/03/09 02:45:04;;;;;;;10.77;2.83;;;2.10;99.90;;;;;;5047431;28;20033;-74
2022/03/09 02:47:30;;;;;;;4.25;2.22;;;2.10;99.90;;;;;;5047431;28;20072;-75
2022/03/09 02:49:55;;;;;;;4.47;1.65;;;2.00;99.90;;;;;;5046628;28;20045;-72
2022/03/09 02:52:28;;;;;;;10.95;2.50;;;2.00;99.90;;;;;;5046943;28;20076;-74
2022/03/09 02:54:54;;;;;;;2.65;1.52;;;2.00;99.90;;;;;;5028001;28;20034;-73
2022/03/09 02:57:19;;;;;;;9.18;1.88;;;2.00;99.90;;;;;;5046969;28;20485;-72
2022/03/09 02:59:54;;;;;;;7.65;2.58;;;2.10;99.90;;;;;;5025164;28;20053;-74
2022/03/09 03:02:20;;;;;;;11.80;2.03;;;2.00;99.90;;;;;;5009986;28;20026;-71
2022/03/09 03:04:45;;;;;;;17.27;2.38;;;2.00;99.90;;;;;;5046682;28;20039;-73
2022/03/09 03:07:11;;;;;;;7.50;2.25;;;2.00;99.90;;;;;;5028936;28;20022;-74
2022/03/09 03:09:37;;;;;;;2.67;1.70;;;2.00;99.90;;;;;;5028790;28;20097;-73
2022/03/09 03:12:02;;;;;;;15.15;2.13;;;2.00;99.90;;;;;;5029220;28;20033;-72
2022/03/09 03:14:28;;;;;;;2.78;1.50;;;1.90;99.90;;;;;;5028885;28;20033;-72
2022/03/09 03:16:54;;;;;;;6.35;2.03;;;1.90;99.90;;;;;;5028455;28;20025;-73
2022/03/09 03:19:19;;;;;;;10.48;3.05;;;1.90;99.90;;;;;;5028679;28;20030;-71
2022/03/09 03:21:45;;;;;;;5.72;2.35;;;1.90;99.90;;;;;;5009012;28;20529;-70
2022/03/09 03:24:11;;;;;;;9.40;2.65;;;1.90;99.90;;;;;;5038897;28;20042;-73
2022/03/09 03:26:36;;;;;;;3.58;1.88;;;2.00;99.90;;;;;;5038356;28;20080;-73
2022/03/09 03:29:02;;;;;;;3.63;1.70;;;2.00;99.90;;;;;;5027375;28;20029;-73
2022/03/09 03:31:31;;;;;;;2.13;1.50;;;2.00;99.90;;;;;;5026241;28;20029;-73
2022/03/09 03:33:57;;;;;;;6.63;2.42;;;2.00;99.90;;;;;;5033416;28;20034;-72
2022/03/09 03:36:23;;;;;;;4.10;2.13;;;2.00;99.90;;;;;;5026510;28;20026;-73
2022/03/09 03:38:52;;;;;;;3.83;1.85;;;1.90;99.90;;;;;;5026120;28;20046;-72
2022/03/09 03:41:18;;;;;;;5.75;1.90;;;1.90;99.90;;;;;;5008824;28;20125;-72
2022/03/09 03:43:44;;;;;;;9.30;2.47;;;1.80;99.90;;;;;;5026298;28;20030;-73
2022/03/09 03:46:09;;;;;;;8.75;1.83;;;1.70;99.90;;;;;;5026055;28;20041;-73
2022/03/09 03:48:35;;;;;;;3.95;1.67;;;1.70;99.90;;;;;;5036382;28;20090;-73
2022/03/09 03:51:01;;;;;;;3.15;1.90;;;1.70;99.90;;;;;;5045910;28;20488;-73
2022/03/09 03:53:26;;;;;;;5.80;1.95;;;1.60;99.90;;;;;;5024235;28;20069;-73
2022/03/09 03:55:53;;;;;;;4.32;1.90;;;1.60;99.90;;;;;;5026280;28;20026;-76
2022/03/09 03:58:19;;;;;;;4.43;2.03;;;1.50;99.90;;;;;;5025993;28;20086;-72
2022/03/09 04:00:44;;;;;;;11.65;2.17;;;1.50;99.90;;;;;;5025826;28;20037;-73
2022/03/09 04:03:10;;;;;;;6.15;2.88;;;1.50;99.90;;;;;;5026241;28;20022;-74
2022/03/09 04:05:37;;;;;;;6.30;2.63;;;1.50;99.90;;;;;;5024279;28;20401;-71
2022/03/09 04:08:03;;;;;;;11.02;2.53;;;1.50;99.90;;;;;;5024612;28;20542;-72
2022/03/09 04:10:28;;;;;;;6.03;1.92;;;1.50;99.90;;;;;;5024700;28;20034;-72
2022/03/09 04:13:00;;;;;;;5.32;2.22;;;1.40;99.90;;;;;;5024188;28;20026;-75
2022/03/09 04:15:26;;;;;;;8.45;2.88;;;1.40;99.90;;;;;;5025859;28;20032;-75
2022/03/09 04:17:52;;;;;;;7.28;2.17;;;1.40;99.90;;;;;;5024511;28;20026;-73
2022/03/09 04:20:18;;;;;;;10.45;2.20;;;1.30;99.90;;;;;;5025773;28;20099;-70
2022/03/09 04:22:44;;;;;;;6.78;3.00;;;1.30;99.90;;;;;;5025571;28;20544;-73
2022/03/09 04:25:11;;;;;;;4.13;1.92;;;1.30;99.90;;;;;;5025887;28;20070;-73
2022/03/09 04:27:37;;;;;;;6.00;2.30;;;1.30;99.90;;;;;;5025817;28;20022;-75
2022/03/09 04:30:05;;;;;;;6.88;2.00;;;1.20;99.90;;;;;;5026112;28;20037;-74
2022/03/09 04:32:32;;;;;;;4.60;2.15;;;1.20;99.90;;;;;;5025764;28;20037;-74
2022/03/09 04:34:57;;;;;;;6.03;2.30;;;1.20;99.90;;;;;;5023964;28;20030;-73
2022/03/09 04:37:23;;;;;;;6.32;2.35;;;1.10;99.90;;;;;;5023935;28;20120;-70
2022/03/09 04:39:55;;;;;;;6.55;2.20;;;1.10;99.90;;;;;;5025700;28;20466;-74
2022/03/09 04:42:21;;;;;;;4.55;1.98;;;1.10;99.90;;;;;;5023820;28;20037;-72
2022/03/09 04:44:47;;;;;;;3.55;2.00;;;1.10;99.90;;;;;;5025237;28;20038;-74
2022/03/09 04:47:12;;;;;;;6.32;2.53;;;1.10;99.90;;;;;;5025316;28;20049;-72
2022/03/09 04:49:38;;;;;;;4.90;2.10;;;1.10;99.90;;;;;;5024879;28;20037;-73
2022/03/09 04:52:04;;;;;;;4.63;1.92;;;1.10;99.90;;;;;;5032195;28;20046;-74
2022/03/09 04:54:30;;;;;;;7.38;2.88;;;1.20;99.90;;;;;;5027321;28;20105;-72
2022/03/09 04:56:55;;;;;;;13.05;2.42;;;1.30;99.90;;;;;;5044660;28;20022;-74
2022/03/09 04:59:21;;;;;;;6.18;2.13;;;1.30;99.90;;;;;;5044943;28;20029;-73
2022/03/09 05:01:46;;;;;;;13.85;2.65;;;1.30;99.90;;;;;;5026990;28;20053;-72
2022/03/09 05:04:12;;;;;;;5.35;2.45;;;1.30;99.90;;;;;;5044680;28;20041;-73
2022/03/09 05:06:37;;;;;;;4.32;2.22;;;1.30;99.90;;;;;;5045039;28;20072;-73
2022/03/09 05:09:04;;;;;;;10.98;2.50;;;1.20;99.90;;;;;;5044916;28;20037;-75
2022/03/09 05:11:30;;;;;;;5.30;2.35;;;1.20;99.90;;;;;;5026799;28;20037;-75
2022/03/09 05:13:55;;;;;;;5.60;2.40;;;1.10;99.90;;;;;;5027023;28;20071;-71
2022/03/09 05:16:22;;;;;;;12.35;2.15;;;1.10;99.90;;;;;;5044905;28;20030;-73
2022/03/09 05:18:48;;;;;;;4.35;2.10;;;1.10;99.90;;;;;;5023631;28;20113;-71
2022/03/09 05:21:13;;;;;;;9.57;2.67;;;1.20;99.90;;;;;;5029367;28;20489;-72
2022/03/09 05:23:39;;;;;;;5.30;2.35;;;1.20;99.90;;;;;;5019082;28;20655;-72
2022/03/09 05:26:05;;;;;;;9.57;2.85;;;1.20;99.90;;;;;;5031192;28;20033;-74
2022/03/09 05:28:40;;;;;;;8.73;2.40;;;1.20;99.90;;;;;;5049293;28;20025;-73
2022/03/09 05:31:05;;;;;;;6.80;2.38;;;1.10;99.90;;;;;;5048725;28;20034;-73
2022/03/09 05:33:31;;;;;;;5.88;2.15;;;1.10;99.90;;;;;;5049195;28;20032;-74
2022/03/09 05:35:57;;;;;;;4.05;2.15;;;1.10;99.90;;;;;;5030820;28;20029;-72
2022/03/09 05:38:22;;;;;;;8.27;2.67;;;1.10;99.90;;;;;;5030386;28;20033;-73
2022/03/09 05:40:48;;;;;;;5.18;2.30;;;1.10;99.90;;;;;;5028525;28;20417;-70
2022/03/09 05:43:13;;;;;;;4.65;2.25;;;1.10;99.90;;;;;;5042358;28;20104;-73
2022/03/09 05:45:39;;;;;;;6.43;2.20;;;1.10;99.90;;;;;;5036417;28;20061;-73
2022/03/09 05:48:08;;;;;;;5.38;1.88;;;1.00;99.90;;;;;;5028920;28;20075;-74
2022/03/09 05:50:35;;;;;;;6.10;2.65;;;1.00;99.90;;;;;;5028461;28;20041;-72
2022/03/09 05:53:01;;;;;;;4.72;2.50;;;0.90;99.90;;;;;;5028374;28;20078;-74
2022/03/09 05:55:26;;;;;;;6.65;2.22;;;0.90;99.90;;;;;;5028676;28;20026;-75
2022/03/09 05:57:54;;;;;;;4.05;2.13;;;0.90;99.90;;;;;;5010445;28;20110;-72
2022/03/09 06:00:19;;;;;;;5.93;2.70;;;0.90;99.90;;;;;;5028565;28;20026;-70
2022/03/09 06:02:45;;;;;;;8.05;2.38;;;0.90;99.90;;;;;;5028458;28;20056;-73
2022/03/09 06:05:10;;;;;;;6.05;2.95;;;0.90;99.90;;;;;;5027916;28;20034;-73
2022/03/09 06:07:36;;;;;;;6.07;2.72;;;0.80;99.90;;;;;;5028244;28;20030;-73
2022/03/09 06:10:09;;;;;;;5.60;2.38;;;0.80;99.90;;;;;;5028285;28;20034;-74
2022/03/09 06:12:36;;;;;;;8.88;2.92;;;0.80;99.90;;;;;;5012994;28;20152;-73
2022/03/09 06:15:02;;;;;;;13.60;3.83;;;0.80;99.90;;;;;;5031709;28;20036;-72
2022/03/09 06:17:35;;;;;;;6.22;2.88;;;0.90;99.90;;;;;;5010235;28;20489;-72
2022/03/09 06:20:01;;;;;;;4.15;2.25;;;0.90;99.90;;;;;;5008549;28;20030;-73
2022/03/09 06:22:27;;;;;;;4.50;2.92;;;0.80;99.90;;;;;;5027966;28;20025;-71
2022/03/09 06:24:52;;;;;;;5.28;2.65;;;0.80;99.90;;;;;;5027475;28;20042;-72
2022/03/09 06:27:18;;;;;;;9.93;3.38;;;0.80;99.90;;;;;;5032607;28;20036;-71
2022/03/09 06:29:44;;;;;;;9.82;2.75;;;0.90;99.90;;;;;;5028927;28;20057;-74
2022/03/09 06:32:10;;;;;;;5.30;2.78;;;0.90;99.90;;;;;;5028950;28;20152;-74
2022/03/09 06:34:35;;;;;;;5.72;2.47;;;0.90;99.90;;;;;;5010078;28;20034;-72
2022/03/09 06:37:01;;;;;;;7.47;2.55;;;0.90;99.90;;;;;;5027807;28;20026;-72
2022/03/09 06:39:27;;;;;;;7.10;2.75;;;1.00;99.90;;;;;;5009779;28;20033;-71
2022/03/09 06:41:52;;;;;;;9.23;2.92;;;1.00;99.90;;;;;;5026876;28;20033;-72
2022/03/09 06:44:18;;;;;;;6.13;2.58;;;1.00;99.90;;;;;;5016622;28;20093;-71
2022/03/09 06:46:43;;;;;;;7.97;2.42;;;1.10;99.90;;;;;;5033557;28;20026;-71
2022/03/09 06:49:09;;;;;;;11.80;3.08;;;1.10;99.90;;;;;;5023229;28;20026;-71
2022/03/09 06:51:35;;;;;;;7.90;2.85;;;1.10;99.90;;;;;;5025171;28;20058;-72
2022/03/09 06:54:01;;;;;;;4.55;2.70;;;1.10;99.90;;;;;;5029208;28;20041;-71
2022/03/09 06:56:26;;;;;;;8.70;3.05;;;1.20;99.90;;;;;;5017083;28;20042;-73
2022/03/09 06:58:52;;;;;;;6.60;3.55;;;1.20;99.90;;;;;;5033822;28;20033;-73
2022/03/09 07:01:18;;;;;;;7.03;2.60;;;1.30;99.90;;;;;;5035716;28;20026;-73
2022/03/09 07:03:44;;;;;;;5.95;2.67;;;1.30;99.90;;;;;;5046151;28;20037;-74
2022/03/09 07:06:11;;;;;;;7.40;3.10;;;1.40;99.90;;;;;;5046165;28;20043;-72
2022/03/09 07:08:37;;;;;;;7.50;2.75;;;1.60;99.90;;;;;;5037864;28;20022;-73
2022/03/09 07:11:03;;;;;;;16.50;3.30;;;1.60;99.90;;;;;;5040436;28;20046;-70
2022/03/09 07:13:29;;;;;;;4.05;2.17;;;1.70;99.90;;;;;;5043159;28;20030;-70
2022/03/09 07:15:55;;;;;;;4.70;2.45;;;1.90;99.90;;;;;;5033536;28;20852;-70
2022/03/09 07:18:21;;;;;;;5.68;2.38;;;2.10;99.90;;;;;;5040676;28;20386;-70
2022/03/09 07:20:47;;;;;;;4.85;2.67;;;2.20;99.90;;;;;;5040753;28;20053;-73
2022/03/09 07:23:13;;;;;;;8.55;3.40;;;2.30;99.90;;;;;;5023493;28;20033;-70
2022/03/09 07:25:40;;;;;;;6.13;2.08;;;2.50;99.90;;;;;;5044486;28;20080;-71
2022/03/09 07:28:06;;;;;;;3.85;1.60;;;2.60;99.90;;;;;;5033757;28;20030;-72
2022/03/09 07:30:32;;;;;;;7.97;2.20;;;2.70;99.90;;;;;;5015021;28;20026;-71
2022/03/09 07:32:58;;;;;;;9.43;2.80;;;2.80;99.90;;;;;;5036587;28;20033;-71
2022/03/09 07:35:24;;;;;;;6.55;2.80;;;2.90;99.90;;;;;;5043373;28;20040;-71
2022/03/09 07:37:51;;;;;;;6.85;2.65;;;3.00;99.90;;;;;;5044263;28;20030;-72
2022/03/09 07:40:17;;;;;;;5.00;2.30;;;3.10;99.90;;;;;;5043735;28;20044;-72
2022/03/09 07:42:42;;;;;;;21.50;3.30;;;3.20;99.90;;;;;;5044656;28;20048;-71
2022/03/09 07:45:08;;;;;;;5.28;2.63;;;3.20;99.90;;;;;;5046109;28;20052;-73
2022/03/09 07:47:35;;;;;;;7.20;3.47;;;3.40;99.90;;;;;;5046651;28;20024;-73
2022/03/09 07:50:02;;;;;;;5.07;2.55;;;3.50;99.90;;;;;;5045814;28;20026;-72
2022/03/09 07:52:27;;;;;;;3.72;1.95;;;3.80;99.90;;;;;;5026101;28;20049;-73
2022/03/09 07:54:53;;;;;;;6.32;2.47;;;4.00;99.90;;;;;;5045849;28;20068;-74
2022/03/09 07:57:19;;;;;;;14.73;2.63;;;4.30;99.90;;;;;;5040643;28;20030;-73
2022/03/09 07:59:45;;;;;;;5.82;2.78;;;4.50;99.90;;;;;;5041631;28;20372;-71
2022/03/09 08:02:11;;;;;;;3.95;2.00;;;4.70;99.90;;;;;;5023826;28;20130;-73
2022/03/09 08:04:40;;;;;;;4.25;2.33;;;5.00;99.90;;;;;;5037418;28;20069;-74
2022/03/09 08:07:06;;;;;;;5.35;2.30;;;5.20;99.90;;;;;;5008295;28;20041;-72
2022/03/09 08:09:31;;;;;;;6.63;2.90;;;5.50;99.90;;;;;;5032903;28;20033;-72
2022/03/09 08:11:57;;;;;;;6.03;2.47;;;5.60;99.90;;;;;;5031650;28;20386;-73
2022/03/09 08:14:22;;;;;;;9.20;3.88;;;5.80;99.90;;;;;;5025624;28;20032;-74
2022/03/09 08:16:48;;;;;;;5.43;2.05;;;6.00;99.90;;;;;;5032009;28;20029;-72
2022/03/09 08:19:14;;;;;;;6.47;2.47;;;6.10;99.90;;;;;;5036087;28;20071;-72
2022/03/09 08:21:40;;;;;;;5.90;2.55;;;6.30;99.90;;;;;;5030246;28;20025;-72
2022/03/09 08:24:06;;;;;;;4.28;2.58;;;6.50;99.90;;;;;;5025649;28;20033;-74
2022/03/09 08:26:31;;;;;;;5.97;2.70;;;6.70;99.90;;;;;;5024143;28;20052;-73
2022/03/09 08:28:57;;;;;;;7.60;2.63;;;6.80;99.90;;;;;;5025591;28;20049;-72
2022/03/09 08:31:24;;;;;;;6.20;2.83;;;7.00;99.90;;;;;;5025352;28;20032;-73
2022/03/09 08:33:49;;;;;;;4.68;2.28;;;7.20;99.90;;;;;;5044318;28;20108;-72
2022/03/09 08:36:15;;;;;;;6.28;2.25;;;7.40;99.90;;;;;;5045186;28;20037;-73
2022/03/09 08:38:40;;;;;;;6.53;2.88;;;7.60;99.90;;;;;;5045041;28;20025;-73
2022/03/09 08:41:06;;;;;;;4.97;2.55;;;7.80;99.90;;;;;;5044907;28;20108;-73
2022/03/09 08:43:35;;;;;;;5.22;2.72;;;7.90;99.90;;;;;;5045402;28;20033;-74
2022/03/09 08:46:00;;;;;;;7.55;3.45;;;8.00;99.90;;;;;;5036594;28;20033;-73
2022/03/09 08:48:26;;;;;;;7.53;3.38;;;8.00;99.90;;;;;;5021193;28;20040;-73
2022/03/09 08:50:55;;;;;;;11.43;3.35;;;8.10;99.90;;;;;;5030799;28;20064;-72
2022/03/09 08:53:21;;;;;;;11.43;3.10;;;8.30;99.90;;;;;;5005818;28;20080;-71
2022/03/09 08:55:47;;;;;;;4.57;2.45;;;8.40;99.90;;;;;;5025286;28;20026;-72
2022/03/09 08:58:13;;;;;;;4.38;2.25;;;8.50;99.90;;;;;;5024975;28;20430;-72
2022/03/09 09:00:39;;;;;;;9.70;3.35;;;8.60;99.90;;;;;;5027285;28;20041;-72
2022/03/09 09:03:05;;;;;;;8.93;3.33;;;8.70;99.90;;;;;;5034078;28;20117;-74
2022/03/09 09:05:31;;;;;;;8.55;3.42;;;8.70;99.90;;;;;;5028845;28;20072;-73
2022/03/09 09:07:57;;;;;;;6.25;3.03;;;8.80;99.90;;;;;;5034400;28;20033;-72
2022/03/09 09:10:22;;;;;;;6.30;3.03;;;8.90;99.90;;;;;;5037089;28;20033;-75
2022/03/09 09:12:50;;;;;;;12.02;3.95;;;9.00;99.90;;;;;;5034075;28;20034;-72
2022/03/09 09:15:16;;;;;;;11.60;2.90;;;8.90;99.90;;;;;;5024361;28;20481;-73
2022/03/09 09:17:41;;;;;;;4.40;2.78;;;8.90;99.90;;;;;;5025532;28;20038;-73
2022/03/09 09:20:09;;;;;;;7.35;3.17;;;8.90;99.90;;;;;;5023984;28;20054;-72
2022/03/09 09:22:42;;;;;;;16.15;3.88;;;9.00;99.90;;;;;;5035262;28;20072;-72
2022/03/09 09:25:10;;;;;;;10.93;3.92;;;9.00;99.90;;;;;;5023975;28;20046;-74
2022/03/09 09:27:37;;;;;;;8.38;3.72;;;9.10;99.90;;;;;;5023853;28;20026;-75
2022/03/09 09:30:03;;;;;;;7.22;2.45;;;9.30;99.90;;;;;;5023920;28;20025;-73
2022/03/09 09:32:29;;;;;;;8.90;2.88;;;9.50;99.90;;;;;;5023078;28;20030;-72
2022/03/09 09:34:55;;;;;;;4.45;2.33;;;9.60;99.90;;;;;;5032540;28;20060;-73
2022/03/09 09:37:20;;;;;;;6.15;3.33;;;9.80;99.90;;;;;;5034961;28;20084;-71
2022/03/09 09:39:46;;;;;;;4.75;3.20;;;10.00;99.90;;;;;;5025265;28;20025;-75
2022/03/09 09:42:15;;;;;;;13.95;3.00;;;10.00;99.90;;;;;;5013777;28;20032;-75
2022/03/09 09:44:42;;;;;;;5.88;3.35;;;10.10;99.90;;;;;;5029143;28;20038;-72
2022/03/09 09:47:13;;;;;;;6.85;3.50;;;9.90;99.90;;;;;;5026220;28;20453;-73
2022/03/09 09:49:40;;;;;;;6.68;3.63;;;10.20;99.90;;;;;;5015680;28;20026;-72
2022/03/09 09:52:07;;;;;;;7.68;3.50;;;10.40;99.90;;;;;;5043419;28;20125;-74
2022/03/09 09:54:34;;;;;;;10.45;3.65;;;10.60;99.90;;;;;;5042862;28;20026;-72
2022/03/09 09:57:00;;;;;;;6.78;3.22;;;10.80;99.90;;;;;;5037122;28;20065;-71
2022/03/09 09:59:26;;;;;;;6.70;2.95;;;11.00;99.90;;;;;;5030845;28;20045;-73
2022/03/09 10:01:51;;;;;;;7.20;3.45;;;11.20;99.90;;;;;;5019930;28;20421;-72
2022/03/09 10:04:17;;;;;;;9.25;3.45;;;11.30;99.90;;;;;;5025402;28;20057;-73
2022/03/09 10:06:42;;;;;;;9.05;4.05;;;11.40;99.90;;;;;;5010729;28;20382;-71
2022/03/09 10:09:11;;;;;;;12.15;3.95;;;11.60;99.90;;;;;;5027853;28;20026;-73
2022/03/09 10:11:53;;;;;;;6.80;3.78;;;11.70;99.90;;;;;;5034824;28;20122;-72
2022/03/09 10:14:46;;;;;;;10.60;3.05;;;11.80;99.90;;;;;;5046419;28;20047;-72
2022/03/09 10:17:16;;;;;;;8.18;3.67;;;12.00;99.90;;;;;;5029298;28;20050;-71
2022/03/09 10:19:50;;;;;;;5.72;2.83;;;12.20;99.90;;;;;;5044688;28;20035;-72
2022/03/09 10:22:24;;;;;;;8.23;3.70;;;12.40;99.90;;;;;;5044795;28;20604;-74
2022/03/09 10:24:52;;;;;;;8.98;3.67;;;12.70;99.90;;;;;;5047202;28;20307;-73
2022/03/09 10:27:53;;;;;;;7.40;3.22;;;12.80;99.90;;;;;;5039163;28;20053;-72
2022/03/09 10:30:21;;;;;;;9.13;3.35;;;13.00;99.90;;;;;;4993893;28;20047;-74
2022/03/09 10:32:47;;;;;;;6.32;3.00;;;13.30;99.90;;;;;;5032540;28;20037;-73
2022/03/09 10:35:18;;;;;;;6.00;2.58;;;13.40;99.90;;;;;;5035453;28;20097;-73
2022/03/09 10:37:47;;;;;;;8.63;3.40;;;13.60;99.90;;;;;;5040197;28;20048;-74
2022/03/09 10:40:21;;;;;;;13.70;3.65;;;13.70;99.90;;;;;;5036650;28;20044;-76
2022/03/09 10:42:48;;;;;;;9.00;4.13;;;13.80;99.90;;;;;;5019577;28;20026;-71
2022/03/09 10:45:17;;;;;;;7.05;2.92;;;13.90;99.90;;;;;;5036838;28;20108;-73
2022/03/09 10:47:48;;;;;;;10.68;2.67;;;14.00;99.90;;;;;;5014360;28;20048;-74
2022/03/09 10:50:20;;;;;;;5.20;2.72;;;14.10;99.90;;;;;;5032490;28;20030;-72
2022/03/09 10:52:52;;;;;;;6.22;3.15;;;14.30;99.90;;;;;;5042632;28;20169;-72
2022/03/09 10:55:26;;;;;;;6.65;3.33;;;14.50;99.90;;;;;;5042168;28;20029;-74
2022/03/09 10:58:05;;;;;;;4.90;2.83;;;14.60;99.90;;;;;;5036953;28;20101;-72
2022/03/09 11:00:38;;;;;;;6.15;3.63;;;14.80;99.90;;;;;;5033111;28;20026;-72
2022/03/09 11:03:11;;;;;;;5.93;3.05;;;15.10;99.90;;;;;;5041763;28;20030;-72
2022/03/09 11:05:53;;;;;;;8.07;2.85;;;15.20;99.90;;;;;;5027995;28;20107;-72
2022/03/09 11:08:22;;;;;;;7.80;3.17;;;15.30;99.90;;;;;;5046185;28;20025;-74
2022/03/09 11:10:49;;;;;;;6.85;3.28;;;15.30;99.40;;;;;;5045768;28;20030;-71
2022/03/09 11:13:17;;;;;;;7.68;3.17;;;15.50;99.00;;;;;;5040912;28;20044;-71
2022/03/09 11:15:44;;;;;;;8.63;2.85;;;15.60;97.90;;;;;;5032813;28;20470;-73
2022/03/09 11:18:20;;;;;;;4.75;2.63;;;15.60;97.40;;;;;;5037607;28;20055;-73
2022/03/09 11:20:48;;;;;;;11.57;3.33;;;15.70;97.70;;;;;;5045103;28;20037;-73
2022/03/09 11:23:16;;;;;;;9.38;3.50;;;15.80;96.90;;;;;;5038239;28;20018;-73
2022/03/09 11:26:04;;;;;;;8.10;2.92;;;16.00;96.80;;;;;;5042563;28;20029;-72
2022/03/09 11:28:34;;;;;;;5.18;2.63;;;16.00;93.80;;;;;;5035825;28;20038;-73
2022/03/09 11:31:09;;;;;;;4.88;2.17;;;16.00;93.40;;;;;;5045813;28;20026;-72
2022/03/09 11:33:47;;;;;;;8.30;3.10;;;16.20;95.00;;;;;;5038575;28;20083;-74
2022/03/09 11:36:27;;;;;;;6.38;2.83;;;16.50;94.20;;;;;;5036235;28;20025;-74
2022/03/09 11:39:09;;;;;;;3.58;2.10;;;16.60;94.50;;;;;;5046258;28;20026;-75
2022/03/09 11:41:37;;;;;;;5.68;2.58;;;16.70;93.70;;;;;;5040180;28;20051;-74
2022/03/09 11:44:18;;;;;;;8.88;3.33;;;16.80;94.90;;;;;;5045541;28;20533;-73
2022/03/09 11:47:03;;;;;;;11.90;2.85;;;17.00;93.70;;;;;;5027284;28;20377;-74
2022/03/09 11:49:49;;;;;;;4.70;2.38;;;17.30;92.70;;;;;;5024498;28;20470;-74
2022/03/09 11:52:28;;;;;;;9.68;3.67;;;17.30;91.80;;;;;;5024985;28;20490;-74
2022/03/09 11:55:00;;;;;;;7.15;3.15;;;17.40;93.10;;;;;;5043215;28;20039;-72
2022/03/09 11:57:49;;;;;;;7.57;3.03;;;17.60;92.10;;;;;;5065413;28;20029;-74
2022/03/09 12:00:17;;;;;;;6.20;2.63;;;17.80;91.30;;;;;;5045065;28;20029;-73
2022/03/09 12:02:56;;;;;;;7.75;2.60;;;17.90;91.40;;;;;;5045408;28;20021;-73
2022/03/09 12:05:25;;;;;;;5.80;2.97;;;17.80;90.50;;;;;;5047093;28;20072;-75
2022/03/09 12:07:54;;;;;;;8.23;3.00;;;17.80;90.30;;;;;;5064694;28;20071;-74
2022/03/09 12:10:22;;;;;;;4.43;2.42;;;17.90;89.50;;;;;;5064838;28;20028;-73
2022/03/09 12:13:18;;;;;;;5.82;3.17;;;18.10;88.90;;;;;;5032668;28;20474;-75
2022/03/09 12:16:03;;;;;;;5.68;3.08;;;18.30;85.60;;;;;;5039959;28;20509;-72
2022/03/09 12:18:43;;;;;;;3.90;2.17;;;18.50;85.60;;;;;;5044086;28;20021;-74
2022/03/09 12:21:13;;;;;;;15.30;2.97;;;18.60;87.70;;;;;;5034608;28;20108;-76
2022/03/09 12:24:00;;;;;;;8.80;3.58;;;18.70;85.60;;;;;;5039426;28;20132;-74
2022/03/09 12:26:47;;;;;;;8.88;3.13;;;18.90;83.40;;;;;;5019144;28;20061;-72
2022/03/09 12:29:24;;;;;;;6.63;3.00;;;19.10;84.40;;;;;;5038123;28;20033;-74
2022/03/09 12:32:02;;;;;;;9.32;3.58;;;19.20;84.00;;;;;;5039348;28;20487;-72
2022/03/09 12:34:49;;;;;;;4.68;2.42;;;19.20;84.20;;;;;;5034527;28;20033;-73
2022/03/09 12:37:18;;;;;;;6.53;3.15;;;19.20;80.90;;;;;;5031930;28;20035;-72
2022/03/09 12:39:53;;;;;;;7.53;2.70;;;19.20;82.90;;;;;;5016288;28;20029;-74
2022/03/09 12:42:19;;;;;;;8.52;2.78;;;19.10;78.30;;;;;;5019536;28;20029;-73
2022/03/09 12:44:45;;;;;;;7.72;2.70;;;18.90;79.10;;;;;;5038561;28;20430;-73
2022/03/09 12:47:11;;;;;;;7.70;3.35;;;18.90;78.90;;;;;;5044151;28;20037;-73
2022/03/09 12:49:39;;;;;;;8.38;2.63;;;18.90;76.60;;;;;;5023374;28;20568;-71
2022/03/09 12:52:13;;;;;;;6.30;2.45;;;19.10;78.80;;;;;;5024529;28;20053;-75
2022/03/09 12:54:44;;;;;;;;;;;19.30;76.60;;;;;;5025409;28;20085;-75
2022/03/09 12:57:22;;;;;;;6.63;2.65;;;19.30;71.60;;;;;;5025305;28;19948;-76
2022/03/09 12:59:54;;;;;;;5.22;2.38;;;19.50;74.10;;;;;;5023730;28;20056;-76